Lake Park, Iowa
Current Conditions -  °F | °C
As of 8:15 PM on Thursday 20 Nov 2014 (Local Time) from KOTG Reporting Station
Clear Clear  
Wind Chill:   Ceiling: Unl
Heat Index:   Visibility: 10mi
Dew Point:   Wind: 0mph
Humidity: 92%   Direction: NA
Pressure: 30.18"   Gusts: NA
Location:  43.46°N, 95.32°W
Report Text: KOTG 210215Z AUTO 00000KT 10SM CLR M16/M17 A3018 RMK AO1
Loading
Personal Weather Stations






























Interactive Weather Map New forecast layout! Learn more

10-Day Weather Forecast

Advertisements
Track Severe Weather on mobile